Mount Pleasant, Mississippi
Current Conditions -  °F | °C
As of 7:50 AM on Tuesday 27 Jan 2015 (Local Time) from KOLV Reporting Station
Clear Clear  
Wind Chill: 32°   Ceiling: Unl
Heat Index: 39°   Visibility: 10mi
Dew Point: 39°   Wind: 12mph
Humidity: 100%   Direction: 340°NNW
Pressure: 30.07"   Gusts: NA
Location:  34.96°N, 89.52°W
Report Text: KOLV 271350Z 34010KT 10SM SKC 04/04 A3007
Loading
Personal Weather Stations






























Interactive Weather Map New forecast layout! Learn more

10-Day Weather Forecast

Advertisements
Track Severe Weather on mobile